createdAt,value
2023-11-24T00:00:15.198Z,55.99
2023-11-24T00:02:16.752Z,57.00
2023-11-24T00:04:18.301Z,57.26
2023-11-24T00:06:21.133Z,57.96
2023-11-24T00:08:22.614Z,57.70
2023-11-24T00:10:23.958Z,57.77
2023-11-24T00:12:26.356Z,55.87
2023-11-24T00:14:27.764Z,57.07
2023-11-24T00:16:29.709Z,57.28
2023-11-24T00:18:31.621Z,57.41
2023-11-24T00:20:32.990Z,56.92
2023-11-24T00:22:34.321Z,56.75
2023-11-24T00:24:37.241Z,57.02
2023-11-24T00:26:38.580Z,57.35
2023-11-24T00:28:40.832Z,57.32
2023-11-24T00:30:42.270Z,57.27
2023-11-24T00:32:46.201Z,57.22
2023-11-24T00:34:48.346Z,56.86
2023-11-24T00:36:49.817Z,57.31
2023-11-24T00:38:51.590Z,57.54
2023-11-24T00:40:52.972Z,56.68
2023-11-24T00:42:55.338Z,56.54
2023-11-24T00:44:56.706Z,56.81
2023-11-24T00:46:58.066Z,56.55
2023-11-24T00:48:59.564Z,56.22
2023-11-24T00:51:00.999Z,56.29
2023-11-24T00:53:02.448Z,56.30
2023-11-24T00:55:04.207Z,56.14
2023-11-24T00:57:06.385Z,56.09
2023-11-24T00:59:07.727Z,56.48
2023-11-24T01:01:10.529Z,56.87
2023-11-24T01:03:11.988Z,56.82
2023-11-24T01:05:13.310Z,56.25
2023-11-24T01:07:14.667Z,56.65
2023-11-24T01:09:16.886Z,57.65
2023-11-24T01:11:18.224Z,57.69
2023-11-24T01:13:19.604Z,57.69
2023-11-24T01:15:20.955Z,56.61
2023-11-24T01:17:22.369Z,56.44
2023-11-24T01:19:24.949Z,56.64
2023-11-24T01:21:26.741Z,56.45
2023-11-24T01:23:28.371Z,57.42
2023-11-24T01:25:29.751Z,57.37
2023-11-24T01:27:31.802Z,57.47
2023-11-24T01:29:33.293Z,57.49
2023-11-24T01:31:34.664Z,57.06
2023-11-24T01:33:36.040Z,57.36
2023-11-24T01:35:37.521Z,57.80
2023-11-24T01:37:38.839Z,57.68
2023-11-24T01:39:40.264Z,58.01
2023-11-24T01:41:41.633Z,58.26
2023-11-24T01:43:42.954Z,58.65
2023-11-24T01:45:45.722Z,58.68
2023-11-24T01:47:48.375Z,58.58
2023-11-24T01:49:50.922Z,58.72
2023-11-24T01:51:52.293Z,59.04
2023-11-24T01:53:53.630Z,58.79
2023-11-24T01:55:55.021Z,58.91
2023-11-24T01:57:56.412Z,59.48
2023-11-24T01:59:57.809Z,58.95
2023-11-24T02:02:00.457Z,59.57
2023-11-24T02:04:01.888Z,59.23
2023-11-24T02:06:03.433Z,59.14
2023-11-24T02:08:05.192Z,59.39
2023-11-24T02:10:07.373Z,59.42
2023-11-24T02:12:08.762Z,59.26
2023-11-24T02:14:10.109Z,59.83
2023-11-24T02:16:11.522Z,59.95
2023-11-24T02:18:13.556Z,59.26
2023-11-24T02:20:15.259Z,60.02
2023-11-24T02:22:16.804Z,59.16
2023-11-24T02:24:18.146Z,59.75
2023-11-24T02:26:20.064Z,59.72
2023-11-24T02:28:21.403Z,59.86
2023-11-24T02:30:23.074Z,59.96
2023-11-24T02:32:24.903Z,60.00
2023-11-24T02:34:26.351Z,60.25
2023-11-24T02:36:31.610Z,60.29
2023-11-24T02:38:33.391Z,59.69
2023-11-24T02:40:34.732Z,60.31
2023-11-24T02:42:39.081Z,59.24
2023-11-24T02:44:40.625Z,60.08
2023-11-24T02:46:42.193Z,59.87
2023-11-24T02:48:43.791Z,60.25
2023-11-24T02:50:45.281Z,60.42
2023-11-24T02:52:46.619Z,60.75
2023-11-24T02:54:48.074Z,61.01
2023-11-24T02:56:49.726Z,61.20
2023-11-24T02:58:51.071Z,61.11
2023-11-24T03:00:52.494Z,61.29
2023-11-24T03:02:53.861Z,61.72
2023-11-24T03:04:55.275Z,61.69
2023-11-24T03:06:56.804Z,61.97
2023-11-24T03:08:58.874Z,61.68
2023-11-24T03:11:01.222Z,62.01
2023-11-24T03:13:02.865Z,61.59
2023-11-24T03:15:04.436Z,61.88
2023-11-24T03:17:05.829Z,61.41
2023-11-24T03:19:07.156Z,61.29
2023-11-24T03:21:08.495Z,61.88
2023-11-24T03:23:09.848Z,61.78
2023-11-24T03:25:11.188Z,61.20
2023-11-24T03:27:12.534Z,61.81
2023-11-24T03:29:13.922Z,61.79
2023-11-24T03:31:15.250Z,61.90
2023-11-24T03:33:16.737Z,61.80
2023-11-24T03:35:18.177Z,62.50
2023-11-24T03:37:19.513Z,62.02
2023-11-24T03:39:22.287Z,62.07
2023-11-24T03:41:23.686Z,61.83
2023-11-24T03:43:25.024Z,61.37
2023-11-24T03:45:26.394Z,62.10
2023-11-24T03:47:27.774Z,62.15
2023-11-24T03:49:29.121Z,61.82
2023-11-24T03:51:30.458Z,62.50
2023-11-24T03:53:32.369Z,62.60
2023-11-24T03:55:33.745Z,63.54
2023-11-24T03:57:35.094Z,63.06
2023-11-24T03:59:36.539Z,63.07
2023-11-24T04:01:38.067Z,62.90
2023-11-24T04:03:39.649Z,63.92
2023-11-24T04:05:41.142Z,64.02
2023-11-24T04:07:42.509Z,64.36
2023-11-24T04:09:44.030Z,64.31
2023-11-24T04:11:45.454Z,63.80
2023-11-24T04:13:46.864Z,64.42
2023-11-24T04:15:48.503Z,64.73
2023-11-24T04:17:50.048Z,64.65
2023-11-24T04:19:51.411Z,64.50
2023-11-24T04:21:52.776Z,64.87
2023-11-24T04:23:54.148Z,64.71
2023-11-24T04:25:55.472Z,64.30
2023-11-24T04:27:56.861Z,64.03
2023-11-24T04:29:58.219Z,64.09
2023-11-24T04:31:59.578Z,63.59
2023-11-24T04:34:01.660Z,63.78
2023-11-24T04:36:03.181Z,63.53
2023-11-24T04:38:04.567Z,63.30
2023-11-24T04:40:06.437Z,63.28
2023-11-24T04:42:07.867Z,63.93
2023-11-24T04:44:09.249Z,64.40
2023-11-24T04:46:10.668Z,64.01
2023-11-24T04:48:13.680Z,64.16
2023-11-24T04:50:17.463Z,64.71
2023-11-24T04:52:18.955Z,64.17
2023-11-24T04:54:20.277Z,64.25
2023-11-24T04:56:21.629Z,63.64
2023-11-24T04:58:22.962Z,63.67
2023-11-24T05:00:24.288Z,63.59
2023-11-24T05:02:25.740Z,63.21
2023-11-24T05:04:28.058Z,62.86
2023-11-24T05:06:29.489Z,62.89
2023-11-24T05:08:30.883Z,62.84
2023-11-24T05:10:32.214Z,62.67
2023-11-24T05:12:34.186Z,62.77
2023-11-24T05:14:35.945Z,62.53
2023-11-24T05:16:37.350Z,62.42
2023-11-24T05:18:38.804Z,62.58
2023-11-24T05:20:40.161Z,62.41
2023-11-24T05:22:41.522Z,62.92
2023-11-24T05:24:43.214Z,62.49
2023-11-24T05:26:44.635Z,62.28
2023-11-24T05:28:45.986Z,62.66
2023-11-24T05:30:47.351Z,62.06
2023-11-24T05:32:48.777Z,62.56
2023-11-24T05:34:52.140Z,62.83
2023-11-24T05:36:53.693Z,62.91
2023-11-24T05:38:55.520Z,62.91
2023-11-24T05:40:56.884Z,63.25
2023-11-24T05:42:58.275Z,63.08
2023-11-24T05:45:00.107Z,62.97
2023-11-24T05:47:05.426Z,62.91
2023-11-24T05:49:06.865Z,63.15
2023-11-24T05:51:08.232Z,63.55
2023-11-24T05:53:09.770Z,63.27
2023-11-24T05:55:11.221Z,63.83
2023-11-24T05:57:12.687Z,63.68
2023-11-24T05:59:14.025Z,63.52
2023-11-24T06:01:15.440Z,63.96
2023-11-24T06:03:16.926Z,64.25
2023-11-24T06:05:18.466Z,63.66
2023-11-24T06:07:19.858Z,63.87
2023-11-24T06:09:21.277Z,64.35
2023-11-24T06:11:22.612Z,63.84
2023-11-24T06:13:24.000Z,64.00
2023-11-24T06:15:25.435Z,63.85
2023-11-24T06:17:26.865Z,63.95
2023-11-24T06:19:28.214Z,63.94
2023-11-24T06:21:29.708Z,63.70
2023-11-24T06:23:31.149Z,63.83
2023-11-24T06:25:32.500Z,63.60
2023-11-24T06:27:33.952Z,63.73
2023-11-24T06:29:36.048Z,63.15
2023-11-24T06:31:37.493Z,63.75
2023-11-24T06:33:38.905Z,63.04
2023-11-24T06:35:41.721Z,63.42
2023-11-24T06:37:43.067Z,63.01
2023-11-24T06:39:44.464Z,63.17
2023-11-24T06:41:45.818Z,62.79
2023-11-24T06:43:47.176Z,62.43
2023-11-24T06:45:48.625Z,62.95
2023-11-24T06:47:50.027Z,63.15
2023-11-24T06:49:51.576Z,62.51
2023-11-24T06:51:53.946Z,62.95
2023-11-24T06:53:55.368Z,62.70
2023-11-24T06:55:56.764Z,62.73
2023-11-24T06:57:59.242Z,62.98
2023-11-24T07:00:00.658Z,63.42
2023-11-24T07:02:02.084Z,63.63
2023-11-24T07:04:03.707Z,64.00
2023-11-24T07:06:06.259Z,63.71
2023-11-24T07:08:07.646Z,63.69
2023-11-24T07:10:12.812Z,63.57
2023-11-24T07:12:19.077Z,63.71
2023-11-24T07:14:20.564Z,63.69
2023-11-24T07:16:23.860Z,63.74
2023-11-24T07:18:26.755Z,64.10
2023-11-24T07:20:28.213Z,64.01
2023-11-24T07:22:31.218Z,63.75
2023-11-24T07:24:33.537Z,64.08
2023-11-24T07:26:34.886Z,64.10
2023-11-24T07:28:37.072Z,64.46
2023-11-24T07:30:38.507Z,64.58
2023-11-24T07:32:39.905Z,64.44
2023-11-24T07:34:41.302Z,64.07
2023-11-24T07:36:42.662Z,64.51
2023-11-24T07:38:43.990Z,64.39
2023-11-24T07:40:45.320Z,64.30
2023-11-24T07:42:47.886Z,64.40
2023-11-24T07:44:49.771Z,64.40
2023-11-24T07:46:51.132Z,63.77
2023-11-24T07:48:52.522Z,63.83
2023-11-24T07:50:53.863Z,62.78
2023-11-24T07:52:57.754Z,63.07
2023-11-24T07:55:00.354Z,62.87
2023-11-24T07:57:01.741Z,63.34
2023-11-24T07:59:03.100Z,63.25
2023-11-24T08:01:08.060Z,62.88
2023-11-24T08:03:11.995Z,62.62
2023-11-24T08:05:13.756Z,63.10
2023-11-24T08:07:15.238Z,62.65
2023-11-24T08:09:18.143Z,62.57
2023-11-24T08:11:19.566Z,62.11
2023-11-24T08:13:21.104Z,62.37
2023-11-24T08:15:22.482Z,61.78
2023-11-24T08:17:23.862Z,61.99
2023-11-24T08:19:27.244Z,61.68
2023-11-24T08:21:28.669Z,61.78
2023-11-24T08:23:30.014Z,61.47
2023-11-24T08:25:31.388Z,61.20
2023-11-24T08:27:32.710Z,61.23
2023-11-24T08:29:34.341Z,61.23
2023-11-24T08:31:35.695Z,61.42
2023-11-24T08:33:37.092Z,61.68
2023-11-24T08:35:39.756Z,61.39
2023-11-24T08:37:41.624Z,61.32
2023-11-24T08:39:43.019Z,61.63
2023-11-24T08:41:45.627Z,61.20
2023-11-24T08:43:47.805Z,61.62
2023-11-24T08:45:49.252Z,61.62
2023-11-24T08:47:50.751Z,61.56
2023-11-24T08:49:52.112Z,61.74
2023-11-24T08:51:53.501Z,61.34
2023-11-24T08:53:54.886Z,61.12
2023-11-24T08:55:59.088Z,61.49
2023-11-24T08:58:01.797Z,61.66
2023-11-24T09:00:04.045Z,61.65
2023-11-24T09:02:05.773Z,61.24
2023-11-24T09:04:07.458Z,61.49
2023-11-24T09:06:08.893Z,61.24
2023-11-24T09:08:10.237Z,61.22
2023-11-24T09:10:13.364Z,61.56
2023-11-24T09:12:14.817Z,61.48
2023-11-24T09:14:16.206Z,61.23
2023-11-24T09:16:18.428Z,61.44
2023-11-24T09:18:22.762Z,61.17
2023-11-24T09:20:25.700Z,60.91
2023-11-24T09:22:27.091Z,60.88
2023-11-24T09:24:28.832Z,60.78
2023-11-24T09:26:30.157Z,61.19
2023-11-24T09:28:31.532Z,61.02
2023-11-24T09:30:33.200Z,60.71
2023-11-24T09:32:36.491Z,60.60
2023-11-24T09:34:38.449Z,60.38
2023-11-24T09:36:43.334Z,60.83
2023-11-24T09:38:45.641Z,60.67
2023-11-24T09:40:46.982Z,60.54
2023-11-24T09:42:48.677Z,60.31
2023-11-24T09:44:50.154Z,60.01
2023-11-24T09:46:53.251Z,60.40
2023-11-24T09:48:55.072Z,60.20
2023-11-24T09:50:56.891Z,60.09
2023-11-24T09:52:58.426Z,60.20
2023-11-24T09:55:00.820Z,60.21
2023-11-24T09:57:02.172Z,60.18
2023-11-24T09:59:09.887Z,60.18
2023-11-24T10:01:11.279Z,60.00
2023-11-24T10:03:12.680Z,59.95
2023-11-24T10:05:14.065Z,59.75
2023-11-24T10:07:16.089Z,59.86
2023-11-24T10:09:17.421Z,59.58
2023-11-24T10:11:28.983Z,59.78
2023-11-24T10:13:30.406Z,60.13
2023-11-24T10:15:32.170Z,59.57
2023-11-24T10:17:34.475Z,60.15
2023-11-24T10:19:35.977Z,60.16
2023-11-24T10:21:37.414Z,60.02
2023-11-24T10:23:39.407Z,60.22
2023-11-24T10:25:40.764Z,59.82
2023-11-24T10:27:42.366Z,59.97
2023-11-24T10:29:43.734Z,60.09
2023-11-24T10:31:45.907Z,59.91
2023-11-24T10:33:47.375Z,59.83
2023-11-24T10:35:50.273Z,60.00
2023-11-24T10:37:51.605Z,59.79
2023-11-24T10:39:52.975Z,59.77
2023-11-24T10:41:55.929Z,59.64
2023-11-24T10:43:57.933Z,59.68
2023-11-24T10:45:59.370Z,59.66
2023-11-24T10:48:00.771Z,59.83
2023-11-24T10:50:02.152Z,59.51
2023-11-24T10:52:03.850Z,59.29
2023-11-24T10:54:05.231Z,59.46
2023-11-24T10:56:07.217Z,59.33
2023-11-24T10:58:08.645Z,59.44
2023-11-24T11:00:10.211Z,59.66
2023-11-24T11:02:14.440Z,59.12
2023-11-24T11:04:17.421Z,59.53
2023-11-24T11:06:18.863Z,59.03
2023-11-24T11:08:20.476Z,59.16
2023-11-24T11:10:27.129Z,58.91
2023-11-24T11:12:32.301Z,59.16
2023-11-24T11:14:34.167Z,59.34
2023-11-24T11:16:38.561Z,59.30
2023-11-24T11:18:40.075Z,58.99
2023-11-24T11:20:45.723Z,58.98
2023-11-24T11:22:48.091Z,59.02
2023-11-24T11:24:49.526Z,59.04
2023-11-24T11:26:52.103Z,58.61
2023-11-24T11:28:54.347Z,59.03
2023-11-24T11:30:56.841Z,58.56
2023-11-24T11:32:58.433Z,58.44
2023-11-24T11:34:59.783Z,58.30
2023-11-24T11:37:03.219Z,58.69
2023-11-24T11:39:05.460Z,58.57
2023-11-24T11:41:06.786Z,58.25
2023-11-24T11:43:09.951Z,58.43
2023-11-24T11:45:12.529Z,58.47
2023-11-24T11:47:21.871Z,58.50
2023-11-24T11:49:24.799Z,58.38
2023-11-24T11:51:27.490Z,58.63
2023-11-24T11:53:35.043Z,58.29
2023-11-24T11:55:36.526Z,58.64
2023-11-24T11:57:38.549Z,58.28
2023-11-24T11:59:41.084Z,58.64
2023-11-24T12:01:42.592Z,58.24
2023-11-24T12:03:44.199Z,58.62
2023-11-24T12:05:48.349Z,58.40
2023-11-24T12:07:49.727Z,58.14
2023-11-24T12:09:51.184Z,58.25
2023-11-24T12:11:52.580Z,58.21
2023-11-24T12:13:53.975Z,58.53
2023-11-24T12:15:56.045Z,58.10
2023-11-24T12:17:58.448Z,58.26
2023-11-24T12:20:00.032Z,58.26
2023-11-24T12:22:01.384Z,58.42
2023-11-24T12:24:12.441Z,58.55
2023-11-24T12:26:18.181Z,58.33
2023-11-24T12:28:19.761Z,58.45
2023-11-24T12:30:21.186Z,58.14
2023-11-24T12:32:22.555Z,58.23
2023-11-24T12:34:23.971Z,58.53
2023-11-24T12:36:25.411Z,58.43
2023-11-24T12:38:27.264Z,58.15
2023-11-24T12:40:29.073Z,58.08
2023-11-24T12:42:30.708Z,58.03
2023-11-24T12:44:32.341Z,58.25
2023-11-24T12:46:34.528Z,58.32
2023-11-24T12:48:38.535Z,58.11
2023-11-24T12:50:43.032Z,58.06
2023-11-24T12:52:44.914Z,58.66
2023-11-24T12:54:47.192Z,58.41
2023-11-24T12:56:48.588Z,58.02
2023-11-24T12:58:51.681Z,58.47
2023-11-24T13:00:55.517Z,58.38
2023-11-24T13:02:57.103Z,58.06
2023-11-24T13:04:58.543Z,58.04
2023-11-24T13:07:00.023Z,58.15
2023-11-24T13:09:01.423Z,58.00
2023-11-24T13:11:04.132Z,58.07
2023-11-24T13:13:06.843Z,58.26
2023-11-24T13:15:08.945Z,58.18
2023-11-24T13:17:10.530Z,58.22
2023-11-24T13:19:12.397Z,57.96
2023-11-24T13:21:13.769Z,57.83
2023-11-24T13:23:15.198Z,57.84
2023-11-24T13:25:17.526Z,58.24
2023-11-24T13:27:19.029Z,58.22
2023-11-24T13:29:20.450Z,58.16
2023-11-24T13:31:22.972Z,57.82
2023-11-24T13:33:24.315Z,58.04
2023-11-24T13:35:26.732Z,57.73
2023-11-24T13:37:31.353Z,57.72
2023-11-24T13:39:33.259Z,57.75
2023-11-24T13:41:37.698Z,57.75
2023-11-24T13:43:39.029Z,57.96
2023-11-24T13:45:43.281Z,58.12
2023-11-24T13:47:45.655Z,57.85
2023-11-24T13:49:47.723Z,57.67
2023-11-24T13:51:49.133Z,57.67
2023-11-24T13:53:52.280Z,57.58
2023-11-24T13:55:57.969Z,57.58
2023-11-24T13:57:59.451Z,57.59
2023-11-24T14:00:00.891Z,57.54
2023-11-24T14:02:02.687Z,57.59
2023-11-24T14:04:04.886Z,57.70
2023-11-24T14:06:06.619Z,57.88
2023-11-24T14:08:10.563Z,57.85
2023-11-24T14:10:18.177Z,57.76
2023-11-24T14:12:21.413Z,57.49
2023-11-24T14:14:22.842Z,57.97
2023-11-24T14:16:24.893Z,57.75
2023-11-24T14:18:26.329Z,57.46
2023-11-24T14:20:27.740Z,57.66
2023-11-24T14:22:29.121Z,57.73
2023-11-24T14:24:30.473Z,57.91
2023-11-24T14:26:34.503Z,57.82
2023-11-24T14:28:35.893Z,57.52
2023-11-24T14:30:39.684Z,57.63
2023-11-24T14:32:41.240Z,57.85
2023-11-24T14:34:43.533Z,57.65
2023-11-24T14:36:46.180Z,57.39
2023-11-24T14:38:49.520Z,57.36
2023-11-24T14:40:51.307Z,57.40
2023-11-24T14:42:52.669Z,57.21
2023-11-24T14:44:54.553Z,57.61
2023-11-24T14:46:56.745Z,57.79
2023-11-24T14:48:58.254Z,57.53
2023-11-24T14:50:59.641Z,57.34
2023-11-24T14:53:01.834Z,57.69
2023-11-24T14:55:06.065Z,57.33
2023-11-24T14:57:07.494Z,57.30
2023-11-24T14:59:10.024Z,57.44
2023-11-24T15:01:11.654Z,57.58
2023-11-24T15:03:16.360Z,57.35
2023-11-24T15:05:18.476Z,57.77
2023-11-24T15:07:21.066Z,57.30
2023-11-24T15:09:25.888Z,57.36
2023-11-24T15:11:38.509Z,57.59
2023-11-24T15:13:39.839Z,57.37
2023-11-24T15:15:41.347Z,57.38
2023-11-24T15:17:42.811Z,57.28
2023-11-24T15:19:44.217Z,57.60
2023-11-24T15:21:45.613Z,57.31
2023-11-24T15:23:47.018Z,57.27
2023-11-24T15:25:50.862Z,57.40
2023-11-24T15:27:52.254Z,57.01
2023-11-24T15:29:53.633Z,57.60
2023-11-24T15:31:55.066Z,57.04
2023-11-24T15:33:56.716Z,56.86
2023-11-24T15:35:58.221Z,56.85
2023-11-24T15:37:59.543Z,57.16
2023-11-24T15:40:00.993Z,57.20
2023-11-24T15:42:03.442Z,57.15
2023-11-24T15:44:07.678Z,57.37
2023-11-24T15:46:10.941Z,57.00
2023-11-24T15:48:13.421Z,56.85
2023-11-24T15:50:15.787Z,56.87
2023-11-24T15:52:17.220Z,57.18
2023-11-24T15:54:18.675Z,56.78
2023-11-24T15:56:20.013Z,56.74
2023-11-24T15:58:26.220Z,56.26
2023-11-24T16:00:34.353Z,56.76
2023-11-24T16:02:36.006Z,55.96
2023-11-24T16:04:37.487Z,54.88
2023-11-24T16:06:41.000Z,54.50
2023-11-24T16:08:46.007Z,55.47
2023-11-24T16:10:56.639Z,56.12
2023-11-24T16:13:03.589Z,55.89
2023-11-24T16:15:05.335Z,55.33
2023-11-24T16:17:06.902Z,55.05
2023-11-24T16:19:08.499Z,55.23
2023-11-24T16:21:10.239Z,56.30
2023-11-24T16:23:11.616Z,56.85
2023-11-24T16:25:13.126Z,57.55
2023-11-24T16:27:14.442Z,57.61
2023-11-24T16:29:16.137Z,57.89
2023-11-24T16:31:17.584Z,58.06
2023-11-24T16:33:19.007Z,58.12
2023-11-24T16:35:20.342Z,58.55
2023-11-24T16:37:21.890Z,58.16
2023-11-24T16:39:24.162Z,58.60
2023-11-24T16:41:25.895Z,58.29
2023-11-24T16:43:27.302Z,58.35
2023-11-24T16:45:31.577Z,58.69
2023-11-24T16:47:33.016Z,58.58
2023-11-24T16:49:34.549Z,58.33
2023-11-24T16:51:36.000Z,58.33
2023-11-24T16:53:37.367Z,58.08
2023-11-24T16:55:38.792Z,57.95
2023-11-24T16:57:40.164Z,57.92
2023-11-24T16:59:41.544Z,57.58
2023-11-24T17:01:42.992Z,57.95
2023-11-24T17:03:44.807Z,56.62
2023-11-24T17:05:46.196Z,55.37
2023-11-24T17:07:47.614Z,55.54
2023-11-24T17:09:52.843Z,55.67
2023-11-24T17:11:54.313Z,55.54
2023-11-24T17:13:55.638Z,55.88
2023-11-24T17:15:57.069Z,56.01
2023-11-24T17:17:58.645Z,56.09
2023-11-24T17:20:00.101Z,55.65
2023-11-24T17:22:01.470Z,56.38
2023-11-24T17:24:02.804Z,56.00
2023-11-24T17:26:04.179Z,56.00
2023-11-24T17:28:06.244Z,56.21
2023-11-24T17:30:08.049Z,56.15
2023-11-24T17:32:10.501Z,56.17
2023-11-24T17:34:13.200Z,56.40
2023-11-24T17:36:15.299Z,56.56
2023-11-24T17:38:19.671Z,56.14
2023-11-24T17:40:23.450Z,56.22
2023-11-24T17:42:25.170Z,56.26
2023-11-24T17:44:26.538Z,56.38
2023-11-24T17:46:28.039Z,56.37
2023-11-24T17:48:29.404Z,55.70
2023-11-24T17:50:30.797Z,56.37
2023-11-24T17:52:33.629Z,56.21
2023-11-24T17:54:35.576Z,56.00
2023-11-24T17:56:36.948Z,56.06
2023-11-24T17:58:38.411Z,56.45
2023-11-24T18:00:41.325Z,56.63
2023-11-24T18:02:43.062Z,57.18
2023-11-24T18:04:45.004Z,56.93
2023-11-24T18:06:46.351Z,57.06
2023-11-24T18:08:49.606Z,57.06
2023-11-24T18:10:53.745Z,56.94
2023-11-24T18:12:55.794Z,56.94
2023-11-24T18:14:57.154Z,57.66
2023-11-24T18:16:58.524Z,57.19
2023-11-24T18:19:00.041Z,57.58
2023-11-24T18:21:02.069Z,57.81
2023-11-24T18:23:04.558Z,57.31
2023-11-24T18:25:09.335Z,56.77
2023-11-24T18:27:10.857Z,57.37
2023-11-24T18:29:15.053Z,57.13
2023-11-24T18:31:16.577Z,58.25
2023-11-24T18:33:18.006Z,57.69
2023-11-24T18:35:22.514Z,56.88
2023-11-24T18:37:26.877Z,57.44
2023-11-24T18:39:28.593Z,56.90
2023-11-24T18:41:30.029Z,58.01
2023-11-24T18:43:37.221Z,58.00
2023-11-24T18:45:42.043Z,57.64
2023-11-24T18:47:43.495Z,57.29
2023-11-24T18:49:44.937Z,57.00
2023-11-24T18:51:46.268Z,56.96
2023-11-24T18:53:47.605Z,57.36
2023-11-24T18:55:48.927Z,56.48
2023-11-24T18:57:50.878Z,56.96
2023-11-24T18:59:52.226Z,57.53
2023-11-24T19:01:53.642Z,56.86
2023-11-24T19:03:55.076Z,56.88
2023-11-24T19:05:56.453Z,57.12
2023-11-24T19:07:57.824Z,56.78
2023-11-24T19:10:00.141Z,56.25
2023-11-24T19:12:03.044Z,56.18
2023-11-24T19:14:04.498Z,56.47
2023-11-24T19:16:06.081Z,56.53
2023-11-24T19:18:11.403Z,56.85
2023-11-24T19:20:12.764Z,56.69
2023-11-24T19:22:14.117Z,56.73
2023-11-24T19:24:15.532Z,56.59
2023-11-24T19:26:18.049Z,57.30
2023-11-24T19:28:20.734Z,57.41
2023-11-24T19:30:22.135Z,57.56
2023-11-24T19:32:23.528Z,57.47
2023-11-24T19:34:25.013Z,58.16
2023-11-24T19:36:26.539Z,57.46
2023-11-24T19:38:27.897Z,58.05
2023-11-24T19:40:29.994Z,57.63
2023-11-24T19:42:31.350Z,58.37
2023-11-24T19:44:32.671Z,58.53
2023-11-24T19:46:34.237Z,58.77
2023-11-24T19:48:35.651Z,57.95
2023-11-24T19:50:37.151Z,58.53
2023-11-24T19:52:39.642Z,57.97
2023-11-24T19:54:41.004Z,58.16
2023-11-24T19:56:42.340Z,57.18
2023-11-24T19:58:44.186Z,57.73
2023-11-24T20:00:45.592Z,57.72
2023-11-24T20:02:48.321Z,58.07
2023-11-24T20:04:50.061Z,57.75
2023-11-24T20:06:51.645Z,58.21
2023-11-24T20:08:55.760Z,57.40
2023-11-24T20:10:57.284Z,57.13
2023-11-24T20:12:58.686Z,56.87
2023-11-24T20:15:00.059Z,56.88
2023-11-24T20:17:01.494Z,57.36
2023-11-24T20:19:02.921Z,57.35
2023-11-24T20:21:04.258Z,57.38
2023-11-24T20:23:05.623Z,58.04
2023-11-24T20:25:08.333Z,57.59
2023-11-24T20:27:09.687Z,57.46
2023-11-24T20:29:11.032Z,57.80
2023-11-24T20:31:13.671Z,56.50
2023-11-24T20:33:15.089Z,57.00
2023-11-24T20:35:16.519Z,56.25
2023-11-24T20:37:17.961Z,56.99
2023-11-24T20:39:22.356Z,56.31
2023-11-24T20:41:24.199Z,56.94
2023-11-24T20:43:25.638Z,57.12
2023-11-24T20:45:27.232Z,57.22
2023-11-24T20:47:30.936Z,57.67
2023-11-24T20:49:32.484Z,57.34
2023-11-24T20:51:33.945Z,57.69
2023-11-24T20:53:36.148Z,58.50
2023-11-24T20:55:37.587Z,59.21
2023-11-24T20:57:38.956Z,58.98
2023-11-24T20:59:40.324Z,58.71
2023-11-24T21:01:42.017Z,58.05
2023-11-24T21:03:43.615Z,58.37
2023-11-24T21:05:44.980Z,58.68
2023-11-24T21:07:46.338Z,58.43
2023-11-24T21:09:49.202Z,58.43
2023-11-24T21:11:50.531Z,59.00
2023-11-24T21:13:51.862Z,58.83
2023-11-24T21:15:53.190Z,58.83
2023-11-24T21:17:54.844Z,57.92
2023-11-24T21:19:56.309Z,58.09
2023-11-24T21:21:57.666Z,57.79
2023-11-24T21:23:59.276Z,57.81
2023-11-24T21:26:04.635Z,58.02
2023-11-24T21:28:05.990Z,58.33
2023-11-24T21:30:07.655Z,58.01
2023-11-24T21:32:09.492Z,58.00
2023-11-24T21:34:11.120Z,58.35
2023-11-24T21:36:12.499Z,57.84
2023-11-24T21:38:18.671Z,58.90
2023-11-24T21:40:20.135Z,58.53
2023-11-24T21:42:21.583Z,58.13
2023-11-24T21:44:22.912Z,57.89
2023-11-24T21:46:24.325Z,57.70
2023-11-24T21:48:28.623Z,57.84
2023-11-24T21:50:30.036Z,57.78
2023-11-24T21:52:31.845Z,58.04
2023-11-24T21:54:33.219Z,57.87
2023-11-24T21:56:34.710Z,58.58
2023-11-24T21:58:36.255Z,57.67
2023-11-24T22:00:38.310Z,58.01
2023-11-24T22:02:41.069Z,58.09
2023-11-24T22:04:42.934Z,58.05
2023-11-24T22:06:44.655Z,57.88
2023-11-24T22:08:46.004Z,58.19
2023-11-24T22:10:47.413Z,58.03
2023-11-24T22:12:49.200Z,57.89
2023-11-24T22:14:50.617Z,57.97
2023-11-24T22:16:52.116Z,58.23
2023-11-24T22:18:53.514Z,58.16
2023-11-24T22:20:54.933Z,58.93
2023-11-24T22:22:56.257Z,58.94
2023-11-24T22:24:58.040Z,59.31
2023-11-24T22:27:02.306Z,59.40
2023-11-24T22:29:04.168Z,58.97
2023-11-24T22:31:05.631Z,58.76
2023-11-24T22:33:07.169Z,58.76
2023-11-24T22:35:08.525Z,58.38
2023-11-24T22:37:11.653Z,58.06
2023-11-24T22:39:12.981Z,58.02
2023-11-24T22:41:15.037Z,58.00
2023-11-24T22:43:16.412Z,58.32
2023-11-24T22:45:17.787Z,58.47
2023-11-24T22:47:19.477Z,58.30
2023-11-24T22:49:21.042Z,58.47
2023-11-24T22:51:22.674Z,58.14
2023-11-24T22:53:24.100Z,58.41
2023-11-24T22:55:25.539Z,58.37
2023-11-24T22:57:28.194Z,58.19
2023-11-24T22:59:29.526Z,57.92
2023-11-24T23:01:31.010Z,58.12
2023-11-24T23:03:32.430Z,57.88
2023-11-24T23:05:33.846Z,57.48
2023-11-24T23:07:36.291Z,57.87
2023-11-24T23:09:39.609Z,57.92
2023-11-24T23:11:41.746Z,57.84
2023-11-24T23:13:43.244Z,57.55
2023-11-24T23:15:44.944Z,57.54
2023-11-24T23:17:46.351Z,57.93
2023-11-24T23:19:47.785Z,57.87
2023-11-24T23:21:49.156Z,57.52
2023-11-24T23:23:51.119Z,57.46
2023-11-24T23:25:52.547Z,57.46
2023-11-24T23:27:53.950Z,57.51
2023-11-24T23:29:55.378Z,57.90
2023-11-24T23:31:56.843Z,58.05
2023-11-24T23:33:58.291Z,57.36
2023-11-24T23:35:59.940Z,57.41
2023-11-24T23:38:01.344Z,58.11
2023-11-24T23:40:07.008Z,57.99
2023-11-24T23:42:08.432Z,58.14
2023-11-24T23:44:09.806Z,57.74
2023-11-24T23:46:11.529Z,58.05
2023-11-24T23:48:13.029Z,58.42
2023-11-24T23:50:15.776Z,58.56
2023-11-24T23:52:17.146Z,58.05
2023-11-24T23:54:18.933Z,57.77
2023-11-24T23:56:20.461Z,58.40
2023-11-24T23:58:21.821Z,58.67
